Middle Georgia Regional Airport Airport (MCN)

 

Airport Diagram
Current Weather/Forecast (VFR Conditions)
METAR KMCN 260153Z AUTO 00000KT 10SM CLR 21/20 A2999 RMK AO2 SLP152 T02110200
TAF KMCN 252339Z 2600/2624 31003KT P6SM SCT035 FM260800 00000KT 4SM BR BKN006 OVC010 FM261000 00000KT 1SM BR OVC003 FM261500 31003KT P6SM SCT012 BKN025 FM261700 27004KT P6SM SCT035 SCT250

All Charts
General
Chart Name Download
AIRPORT DIAGRAM
TAKEOFF MINIMUMS
ALTERNATE MINIMUMS

Approaches
Chart Name Download
ILS OR LOC RWY 05
ILS RWY 05 (SA CAT I - II)
RNAV (GPS) RWY 05
RNAV (GPS) RWY 14
RNAV (GPS) RWY 23
RNAV (GPS) RWY 32
VOR RWY 14
VOR RWY 23


Inbound Traffic (Arrivals)

No inbound traffic.


Outbound Traffic (Departures)

No outbound traffic.